createdAt,value
2016-11-17T09:56:30.077Z,7.39
2016-11-17T09:57:10.426Z,7.32
2016-11-17T09:57:50.839Z,7.42
2016-11-17T09:58:31.356Z,7.39
2016-11-17T09:59:11.865Z,7.39
2016-11-17T10:02:24.083Z,7.43
2016-11-17T10:03:04.401Z,7.39
2016-11-17T10:03:44.882Z,7.43
2016-11-17T10:04:25.374Z,7.47
2016-11-17T10:05:05.917Z,7.4
2016-11-17T10:05:46.432Z,7.47
2016-11-17T10:06:26.932Z,7.47
2016-11-17T10:07:07.624Z,7.43
2016-11-17T10:07:48.114Z,7.48
2016-11-17T10:08:28.566Z,7.47
2016-11-17T10:09:09.039Z,7.47
2016-11-17T10:09:49.632Z,7.53
2016-11-17T10:10:30.201Z,7.51
2016-11-17T10:11:10.686Z,7.53
2016-11-17T10:11:51.154Z,7.51
2016-11-17T10:12:31.653Z,7.51
2016-11-17T10:13:12.292Z,7.57
2016-11-17T10:13:52.770Z,7.6
2016-11-17T10:14:33.234Z,7.6
2016-11-17T10:15:13.841Z,7.56
2016-11-17T10:15:54.392Z,7.66
2016-11-17T10:16:35.055Z,7.63
2016-11-17T10:17:15.703Z,7.63
2016-11-17T10:17:56.396Z,7.63
2016-11-17T10:18:37.034Z,7.6
2016-11-17T10:19:17.718Z,7.69
2016-11-17T10:19:58.327Z,7.63
2016-11-17T10:20:38.823Z,7.67
2016-11-17T10:21:19.336Z,7.61
2016-11-17T10:21:59.833Z,7.7
2016-11-17T10:22:40.305Z,7.69
2016-11-17T10:23:20.769Z,7.7
2016-11-17T10:24:01.272Z,7.57
2016-11-17T10:24:41.727Z,7.61
2016-11-17T10:25:22.243Z,7.69
2016-11-17T10:26:02.775Z,7.61
2016-11-17T10:26:45.310Z,7.61
2016-11-17T10:27:34.243Z,7.66
2016-11-17T10:28:22.168Z,7.69
2016-11-17T10:29:04.034Z,7.75
2016-11-17T10:29:44.565Z,7.73
2016-11-17T10:30:25.041Z,7.82
2016-11-17T10:31:05.539Z,7.82
2016-11-17T10:31:47.506Z,7.82
2016-11-17T10:32:28.608Z,7.83
2016-11-17T10:33:09.176Z,7.82
2016-11-17T10:33:49.706Z,7.95
2016-11-17T10:34:30.302Z,7.95
2016-11-17T10:35:10.825Z,7.98
2016-11-17T10:35:51.319Z,7.93
2016-11-17T10:36:31.784Z,7.95
2016-11-17T10:37:12.282Z,7.98
2016-11-17T10:37:52.893Z,7.95
2016-11-17T10:38:33.367Z,8.05
2016-11-17T10:39:13.852Z,7.95
2016-11-17T10:39:54.338Z,7.91
2016-11-17T10:40:34.821Z,7.95
2016-11-17T10:41:15.338Z,8.05
2016-11-17T10:41:55.906Z,7.94
2016-11-17T10:42:36.423Z,8.05
2016-11-17T10:43:16.884Z,8.1
2016-11-17T10:43:58.085Z,8.16
2016-11-17T10:44:38.605Z,8.15
2016-11-17T10:45:19.140Z,8.23
2016-11-17T10:45:59.631Z,8.18
2016-11-17T10:46:41.340Z,8.13
2016-11-17T10:47:21.802Z,8.19
2016-11-17T10:48:02.347Z,8.16
2016-11-17T10:48:43.571Z,8.16
2016-11-17T10:49:24.055Z,8.16
2016-11-17T10:50:04.584Z,8.23
2016-11-17T10:50:45.099Z,8.16
2016-11-17T10:51:25.590Z,8.16
2016-11-17T10:52:06.087Z,8.09
2016-11-17T10:52:46.588Z,8.16
2016-11-17T10:53:27.070Z,8.16
2016-11-17T10:54:07.571Z,8.15
2016-11-17T10:54:48.972Z,8.1
2016-11-17T10:55:29.455Z,8.13
2016-11-17T10:56:09.985Z,8.13
2016-11-17T10:56:50.478Z,8.09
2016-11-17T10:57:31.033Z,8.12
2016-11-17T10:58:11.582Z,8.15
2016-11-17T10:58:52.020Z,8.15
2016-11-17T10:59:32.555Z,8.13
2016-11-17T11:00:13.092Z,8.16
2016-11-17T11:00:53.677Z,8.23
2016-11-17T11:01:35.113Z,8.26
2016-11-17T11:02:15.629Z,8.3
2016-11-17T11:02:56.158Z,8.3
2016-11-17T11:03:36.747Z,8.31
2016-11-17T11:04:17.275Z,8.27
2016-11-17T11:04:57.838Z,8.34
2016-11-17T11:05:38.330Z,8.3
2016-11-17T11:06:18.887Z,8.31
2016-11-17T11:06:59.367Z,8.31
2016-11-17T11:07:39.971Z,8.33
2016-11-17T11:08:20.466Z,8.38
2016-11-17T11:09:01.092Z,8.36
2016-11-17T11:09:41.595Z,8.45
2016-11-17T11:10:22.140Z,8.56
2016-11-17T11:11:02.748Z,8.46
2016-11-17T11:11:43.231Z,8.41
2016-11-17T11:12:23.700Z,8.44
2016-11-17T11:13:04.223Z,8.41
2016-11-17T11:13:44.710Z,8.42
2016-11-17T11:14:25.210Z,8.51
2016-11-17T11:15:05.702Z,8.55
2016-11-17T11:15:46.318Z,8.48
2016-11-17T11:16:26.813Z,8.52
2016-11-17T11:17:07.306Z,8.53
2016-11-17T11:17:47.861Z,8.6
2016-11-17T11:18:28.328Z,8.55
2016-11-17T11:19:08.829Z,8.58
2016-11-17T11:19:49.404Z,8.6
2016-11-17T11:20:29.890Z,8.56
2016-11-17T11:21:10.383Z,8.56
2016-11-17T11:21:50.860Z,8.6
2016-11-17T11:22:31.370Z,8.66
2016-11-17T11:24:45.190Z,8.64
2016-11-17T11:25:25.654Z,8.69
2016-11-17T11:26:06.139Z,8.69
2016-11-17T11:26:46.619Z,8.63
2016-11-17T11:27:27.143Z,8.66
2016-11-17T11:28:07.697Z,8.69
2016-11-17T11:28:50.798Z,8.67
2016-11-17T11:29:31.300Z,8.71
2016-11-17T11:30:14.653Z,8.76
2016-11-17T11:30:55.804Z,8.74
2016-11-17T11:31:36.297Z,8.82
2016-11-17T11:32:16.793Z,8.82
2016-11-17T11:32:57.293Z,8.82
2016-11-17T11:33:37.826Z,8.76
2016-11-17T11:34:18.329Z,8.82
2016-11-17T11:34:58.861Z,8.87
2016-11-17T11:36:57.010Z,8.89
2016-11-17T11:37:37.414Z,8.82
2016-11-17T11:38:17.925Z,8.91
2016-11-17T11:38:58.569Z,8.88
2016-11-17T11:39:39.066Z,8.88
2016-11-17T11:40:19.550Z,8.94
2016-11-17T11:41:00.038Z,9
2016-11-17T11:41:40.522Z,9.02
2016-11-17T11:42:21.023Z,8.94
2016-11-17T11:43:02.001Z,8.92
2016-11-17T11:43:42.499Z,8.81
2016-11-17T11:44:23.251Z,8.88
2016-11-17T11:45:03.758Z,8.84
2016-11-17T11:45:44.399Z,8.73
2016-11-17T11:46:25.849Z,8.69
2016-11-17T11:47:09.162Z,8.7
2016-11-17T11:47:52.929Z,8.58
2016-11-17T11:48:36.784Z,8.7
2016-11-17T11:49:17.018Z,8.63
2016-11-17T11:49:57.499Z,8.7
2016-11-17T11:50:38.070Z,8.73
2016-11-17T11:51:18.569Z,8.73
2016-11-17T11:51:59.031Z,8.73
2016-11-17T11:52:39.528Z,8.7
2016-11-17T11:53:20.002Z,8.67
2016-11-17T11:54:00.501Z,8.66
2016-11-17T11:54:40.986Z,8.61
2016-11-17T11:55:21.493Z,8.61
2016-11-17T11:56:02.027Z,8.56
2016-11-17T11:56:42.541Z,8.53
2016-11-17T11:57:23.019Z,8.53
2016-11-17T11:58:03.511Z,8.51
2016-11-17T11:58:43.988Z,8.52
2016-11-17T11:59:24.463Z,8.49
2016-11-17T12:00:04.945Z,8.52
2016-11-17T12:00:45.459Z,8.46
2016-11-17T12:01:25.987Z,8.41
2016-11-17T12:02:06.481Z,8.48
2016-11-17T12:02:47.026Z,8.49
2016-11-17T12:03:27.504Z,8.53
2016-11-17T12:04:07.992Z,8.44
2016-11-17T12:04:48.465Z,8.37
2016-11-17T12:05:28.935Z,8.55
2016-11-17T12:06:09.472Z,8.48
2016-11-17T12:06:49.948Z,8.38
2016-11-17T12:07:30.438Z,8.52
2016-11-17T12:08:10.981Z,8.51
2016-11-17T12:08:51.469Z,8.42
2016-11-17T12:09:31.984Z,8.42
2016-11-17T12:10:12.455Z,8.41
2016-11-17T12:10:52.963Z,8.36
2016-11-17T12:11:33.487Z,8.46
2016-11-17T12:12:13.954Z,8.46
2016-11-17T12:12:54.423Z,8.44
2016-11-17T12:13:34.971Z,8.42
2016-11-17T12:14:15.483Z,8.44
2016-11-17T12:14:55.978Z,8.42
2016-11-17T12:15:36.462Z,8.41
2016-11-17T12:16:16.997Z,8.45
2016-11-17T12:16:57.552Z,8.34
2016-11-17T12:17:38.074Z,8.42
2016-11-17T12:18:18.574Z,8.37
2016-11-17T12:18:59.070Z,8.41
2016-11-17T12:19:39.556Z,8.45
2016-11-17T12:20:20.158Z,8.41
2016-11-17T12:21:00.637Z,8.36
2016-11-17T12:21:41.110Z,8.31
2016-11-17T12:22:21.609Z,8.36
2016-11-17T12:23:02.145Z,8.33
2016-11-17T12:23:42.631Z,8.31
2016-11-17T12:24:23.113Z,8.42
2016-11-17T12:25:03.594Z,8.28
2016-11-17T12:25:44.066Z,8.42
2016-11-17T12:26:24.566Z,8.45
2016-11-17T12:27:05.180Z,8.34
2016-11-17T12:27:45.523Z,8.41
2016-11-17T12:28:26.036Z,8.37
2016-11-17T12:29:06.516Z,8.36
2016-11-17T12:29:46.982Z,8.49
2016-11-17T12:30:27.547Z,8.46
2016-11-17T12:31:08.014Z,8.52
2016-11-17T12:31:48.490Z,8.55
2016-11-17T12:32:28.961Z,8.55
2016-11-17T12:33:09.466Z,8.44
2016-11-17T12:33:49.992Z,8.46
2016-11-17T12:34:30.592Z,8.52
2016-11-17T12:35:12.559Z,8.53
2016-11-17T12:35:53.086Z,8.52
2016-11-17T12:36:33.610Z,8.63
2016-11-17T12:37:14.090Z,8.58
2016-11-17T12:37:54.646Z,8.67
2016-11-17T12:38:35.118Z,8.73
2016-11-17T12:39:15.596Z,8.82
2016-11-17T12:39:56.198Z,8.84
2016-11-17T12:40:36.969Z,8.81
2016-11-17T12:41:17.563Z,8.92
2016-11-17T12:41:58.146Z,8.92
2016-11-17T12:42:38.856Z,8.91
2016-11-17T12:43:19.603Z,8.87
2016-11-17T12:44:00.704Z,8.88
2016-11-17T12:44:41.282Z,8.94
2016-11-17T12:45:21.875Z,8.87
2016-11-17T12:46:02.463Z,8.89
2016-11-17T12:46:43.159Z,9
2016-11-17T12:47:23.777Z,9.04
2016-11-17T12:48:04.641Z,9
2016-11-17T12:48:48.085Z,9.08
2016-11-17T12:49:32.075Z,9.11
2016-11-17T12:50:13.036Z,9.19
2016-11-17T12:50:53.629Z,9.16
2016-11-17T12:51:34.442Z,9.18
2016-11-17T12:52:15.258Z,9.16
2016-11-17T12:52:56.041Z,9.1
2016-11-17T12:53:37.928Z,9.1
2016-11-17T12:54:31.170Z,9.1
2016-11-17T12:55:11.737Z,9.11
2016-11-17T12:56:00.468Z,9.16
2016-11-17T12:56:45.046Z,9.14
2016-11-17T12:57:25.619Z,9.18
2016-11-17T12:58:06.833Z,9.14
2016-11-17T12:58:47.207Z,9.1
2016-11-17T12:59:27.844Z,9.04
2016-11-17T13:00:08.556Z,9.13
2016-11-17T13:00:49.982Z,9.04
2016-11-17T13:01:31.079Z,9.03
2016-11-17T13:02:11.820Z,8.99
2016-11-17T13:02:52.421Z,9.04
2016-11-17T13:03:33.103Z,8.89
2016-11-17T13:04:13.753Z,8.99
2016-11-17T13:04:54.278Z,8.97
2016-11-17T13:05:34.820Z,9
2016-11-17T13:06:15.430Z,9.04
2016-11-17T13:06:56.036Z,8.91
2016-11-17T13:07:37.161Z,8.85
2016-11-17T13:08:17.538Z,8.81
2016-11-17T13:08:58.278Z,8.85
2016-11-17T13:09:38.907Z,8.79
2016-11-17T13:10:19.529Z,8.82
2016-11-17T13:11:00.092Z,8.84
2016-11-17T13:11:41.115Z,8.82
2016-11-17T13:12:22.952Z,8.84
2016-11-17T13:13:03.515Z,8.81
2016-11-17T13:13:45.131Z,8.71
2016-11-17T13:14:26.819Z,8.78
2016-11-17T13:15:07.440Z,8.71
2016-11-17T13:15:47.976Z,8.73
2016-11-17T13:16:29.136Z,8.7
2016-11-17T13:17:09.848Z,8.64
2016-11-17T13:17:50.579Z,8.64
2016-11-17T13:18:31.610Z,8.6
2016-11-17T13:19:13.773Z,8.58
2016-11-17T13:19:54.485Z,8.63
2016-11-17T13:20:35.176Z,8.63
2016-11-17T13:21:16.184Z,8.56
2016-11-17T13:21:56.739Z,8.61
2016-11-17T13:22:37.410Z,8.6
2016-11-17T13:23:18.456Z,8.56
2016-11-17T13:24:05.645Z,8.64
2016-11-17T13:24:46.974Z,8.58
2016-11-17T13:25:27.495Z,8.55
2016-11-17T13:26:09.070Z,8.58
2016-11-17T13:26:49.724Z,8.63
2016-11-17T13:27:30.484Z,8.64
2016-11-17T13:28:11.072Z,8.58
2016-11-17T13:28:51.702Z,8.66
2016-11-17T13:29:32.313Z,8.58
2016-11-17T13:30:12.941Z,8.66
2016-11-17T13:30:53.467Z,8.63
2016-11-17T13:31:34.314Z,8.56
2016-11-17T13:32:14.805Z,8.6
2016-11-17T13:32:55.303Z,8.58
2016-11-17T13:33:35.813Z,8.53
2016-11-17T13:34:16.420Z,8.52
2016-11-17T13:34:56.917Z,8.61
2016-11-17T13:35:37.410Z,8.49
2016-11-17T13:36:17.930Z,8.55
2016-11-17T13:36:58.421Z,8.58
2016-11-17T13:37:38.910Z,8.51
2016-11-17T13:38:19.397Z,8.58
2016-11-17T13:38:59.896Z,8.56
2016-11-17T13:39:40.396Z,8.52
2016-11-17T13:40:20.884Z,8.55
2016-11-17T13:41:01.384Z,8.61
2016-11-17T13:41:41.878Z,8.67
2016-11-17T13:42:22.357Z,8.55
2016-11-17T13:43:02.886Z,8.64
2016-11-17T13:43:43.377Z,8.56
2016-11-17T13:44:24.877Z,8.52
2016-11-17T13:45:05.382Z,8.64
2016-11-17T13:45:45.864Z,8.7
2016-11-17T13:46:26.369Z,8.7
2016-11-17T13:47:08.872Z,8.7
2016-11-17T13:47:49.365Z,8.69
2016-11-17T13:48:29.854Z,8.73
2016-11-17T13:49:10.375Z,8.78
2016-11-17T13:49:50.848Z,8.87
2016-11-17T13:50:31.329Z,8.91
2016-11-17T13:51:12.299Z,8.89
2016-11-17T13:51:52.797Z,8.88
2016-11-17T13:52:33.331Z,8.91
2016-11-17T13:53:13.819Z,8.92
2016-11-17T13:53:54.342Z,9
2016-11-17T13:54:34.838Z,9
2016-11-17T13:55:15.331Z,9
2016-11-17T13:55:55.858Z,8.97
2016-11-17T13:56:36.327Z,8.95
2016-11-17T13:57:16.831Z,8.97
2016-11-17T13:57:57.345Z,9.03
2016-11-17T13:58:37.813Z,8.95
2016-11-17T13:59:18.350Z,9.03
2016-11-17T13:59:58.814Z,9.04
2016-11-17T14:00:39.335Z,8.95
2016-11-17T14:01:19.823Z,8.88
2016-11-17T14:02:00.322Z,8.88
2016-11-17T14:02:40.812Z,8.85
2016-11-17T14:03:21.303Z,8.76
2016-11-17T14:04:05.752Z,8.7
2016-11-17T14:04:47.160Z,8.55
2016-11-17T14:05:27.643Z,8.6
2016-11-17T14:06:08.140Z,8.58
2016-11-17T14:06:48.652Z,8.53
2016-11-17T14:07:29.156Z,8.52
2016-11-17T14:08:09.720Z,8.51
2016-11-17T14:08:50.236Z,8.49
2016-11-17T14:09:30.716Z,8.48
2016-11-17T14:10:11.233Z,8.46
2016-11-17T14:10:51.732Z,8.36
2016-11-17T14:11:32.213Z,8.38
2016-11-17T14:12:12.742Z,8.38
2016-11-17T14:12:53.271Z,8.33
2016-11-17T14:13:40.374Z,8.33
2016-11-17T14:14:29.165Z,8.31
2016-11-17T14:15:09.673Z,8.31
2016-11-17T14:15:50.244Z,8.31
2016-11-17T14:16:30.746Z,8.34
2016-11-17T14:17:14.136Z,8.33
2016-11-17T14:17:59.394Z,8.31
2016-11-17T14:18:39.870Z,8.24
2016-11-17T14:19:20.365Z,8.28
2016-11-17T14:20:00.925Z,8.19
2016-11-17T14:20:41.630Z,8.18
2016-11-17T14:21:23.717Z,8.16
2016-11-17T14:22:04.223Z,8.08
2016-11-17T14:22:44.717Z,8.12
2016-11-17T14:23:25.212Z,8.1
2016-11-17T14:24:06.250Z,8.08
2016-11-17T14:24:46.777Z,7.98
2016-11-17T14:25:27.215Z,7.97
2016-11-17T14:26:07.704Z,7.95
2016-11-17T14:26:48.198Z,7.93
2016-11-17T14:27:28.696Z,7.95
2016-11-17T14:28:09.180Z,7.95
2016-11-17T14:28:51.431Z,7.9
2016-11-17T14:29:31.922Z,7.82
2016-11-17T14:30:13.197Z,7.8
2016-11-17T14:30:53.698Z,7.8
2016-11-17T14:31:34.196Z,7.77
2016-11-17T14:32:16.432Z,7.66
2016-11-17T14:32:56.931Z,7.77
2016-11-17T14:33:37.419Z,7.72
2016-11-17T14:34:18.840Z,7.67
2016-11-17T14:34:59.383Z,7.73
2016-11-17T14:35:39.904Z,7.63
2016-11-17T14:36:20.415Z,7.63
2016-11-17T14:37:02.412Z,7.63
2016-11-17T14:37:45.605Z,7.48
2016-11-17T14:38:26.113Z,7.51
2016-11-17T14:39:06.617Z,7.45
2016-11-17T14:39:47.109Z,7.5
2016-11-17T14:40:28.099Z,7.42
2016-11-17T14:41:08.596Z,7.48
2016-11-17T14:41:49.083Z,7.38
2016-11-17T14:43:37.074Z,7.38
2016-11-17T14:44:17.463Z,7.38
2016-11-17T14:44:57.966Z,7.38
2016-11-17T14:45:38.460Z,7.36
2016-11-17T14:46:18.943Z,7.32
2016-11-17T14:46:59.435Z,7.29
2016-11-17T14:47:39.934Z,7.28
2016-11-17T14:48:20.452Z,7.25
2016-11-17T14:49:00.927Z,7.28
2016-11-17T14:49:41.421Z,7.25
2016-11-17T14:50:21.897Z,7.24
2016-11-17T14:51:02.373Z,7.29
2016-11-17T14:51:42.860Z,7.28
2016-11-17T14:52:23.375Z,7.24
2016-11-17T14:53:03.866Z,7.11
2016-11-17T14:53:44.379Z,7.23
2016-11-17T14:54:24.893Z,7.28
2016-11-17T14:55:05.384Z,7.24
2016-11-17T14:55:45.873Z,7.24
2016-11-17T14:56:26.335Z,7.24
2016-11-17T14:57:06.818Z,7.31
2016-11-17T14:57:47.301Z,7.28
2016-11-17T14:58:27.780Z,7.25
2016-11-17T14:59:08.323Z,7.24
2016-11-17T14:59:48.802Z,7.25
2016-11-17T15:00:29.267Z,7.28
2016-11-17T15:01:09.775Z,7.25
2016-11-17T15:01:50.270Z,7.28
2016-11-17T15:02:30.758Z,7.25
2016-11-17T15:03:11.247Z,7.23
2016-11-17T15:03:51.720Z,7.18
2016-11-17T15:04:32.212Z,7.15
2016-11-17T15:05:12.698Z,7.14
2016-11-17T15:05:53.249Z,7.15
2016-11-17T15:06:33.736Z,7.14
2016-11-17T15:07:14.210Z,7.13
2016-11-17T15:07:54.760Z,7.15
2016-11-17T15:08:35.241Z,7.15
2016-11-17T15:09:15.769Z,7.1
2016-11-17T15:09:56.255Z,7.15
2016-11-17T15:10:36.775Z,7.15
2016-11-17T15:11:17.227Z,7.14
2016-11-17T15:11:57.724Z,7.11
2016-11-17T15:12:38.257Z,7.14
2016-11-17T15:13:18.733Z,7.11
2016-11-17T15:13:59.212Z,7.15
2016-11-17T15:14:39.693Z,7.17
2016-11-17T15:15:20.181Z,7.14
2016-11-17T15:16:00.682Z,7.11
2016-11-17T15:16:41.155Z,7.11
2016-11-17T15:17:21.628Z,7.18
2016-11-17T15:18:02.108Z,7.25
2016-11-17T15:18:42.628Z,7.23
2016-11-17T15:19:23.103Z,7.23
2016-11-17T15:20:03.597Z,7.33
2016-11-17T15:20:44.085Z,7.29
2016-11-17T15:21:24.560Z,7.32
2016-11-17T15:22:05.051Z,7.21
2016-11-17T15:22:45.522Z,7.23
2016-11-17T15:23:25.995Z,7.32
2016-11-17T15:24:06.501Z,7.31
2016-11-17T15:24:46.991Z,7.25
2016-11-17T15:25:27.484Z,7.28
2016-11-17T15:26:07.951Z,7.35
2016-11-17T15:26:48.451Z,7.28
2016-11-17T15:27:28.924Z,7.36
2016-11-17T15:28:09.423Z,7.39
2016-11-17T15:28:49.936Z,7.39
2016-11-17T15:29:38.341Z,7.36
2016-11-17T15:30:21.710Z,7.4
2016-11-17T15:31:02.221Z,7.35
2016-11-17T15:31:42.702Z,7.38
2016-11-17T15:32:23.259Z,7.42
2016-11-17T15:33:03.721Z,7.42
2016-11-17T15:33:44.210Z,7.38
2016-11-17T15:34:24.700Z,7.45
2016-11-17T15:35:05.185Z,7.4
2016-11-17T15:35:45.683Z,7.35
2016-11-17T15:36:26.137Z,7.45
2016-11-17T15:37:06.637Z,7.4
2016-11-17T15:37:47.125Z,7.4
2016-11-17T15:38:27.641Z,7.4
2016-11-17T15:39:08.172Z,7.36
2016-11-17T15:39:48.685Z,7.35
2016-11-17T15:40:29.171Z,7.38
2016-11-17T15:41:09.666Z,7.43
2016-11-17T15:41:50.144Z,7.45
2016-11-17T15:42:30.642Z,7.47
2016-11-17T15:43:11.126Z,7.43
2016-11-17T15:43:51.610Z,7.39
2016-11-17T15:44:32.111Z,7.38
2016-11-17T15:45:12.630Z,7.39
2016-11-17T15:45:53.219Z,7.38
2016-11-17T15:46:33.784Z,7.43
2016-11-17T15:47:14.321Z,7.43
2016-11-17T15:47:54.813Z,7.48
2016-11-17T15:48:35.318Z,7.48
2016-11-17T15:49:15.815Z,7.51
2016-11-17T15:49:56.309Z,7.47
2016-11-17T15:50:36.788Z,7.39
2016-11-17T15:51:17.299Z,7.45
2016-11-17T15:51:57.759Z,7.4
2016-11-17T15:52:38.283Z,7.47
2016-11-17T15:53:18.779Z,7.39
2016-11-17T15:53:59.249Z,7.42
2016-11-17T15:54:39.741Z,7.47
2016-11-17T15:55:20.244Z,7.42
2016-11-17T15:56:00.702Z,7.39
2016-11-17T15:56:41.181Z,7.39
2016-11-17T15:57:21.685Z,7.25
2016-11-17T15:58:02.139Z,7.35
2016-11-17T15:58:42.618Z,7.28
2016-11-17T15:59:23.119Z,7.29
2016-11-17T16:00:03.609Z,7.28
2016-11-17T16:00:44.092Z,7.31
2016-11-17T16:01:24.564Z,7.25
2016-11-17T16:02:05.078Z,7.25
2016-11-17T16:02:45.555Z,7.24
2016-11-17T16:03:26.124Z,7.28
2016-11-17T16:04:06.656Z,7.28
2016-11-17T16:04:47.178Z,7.33
2016-11-17T16:05:27.621Z,7.25
2016-11-17T16:06:08.150Z,7.25
2016-11-17T16:06:48.638Z,7.24
2016-11-17T16:07:29.124Z,7.28
2016-11-17T16:08:09.603Z,7.28
2016-11-17T16:08:50.096Z,7.23
2016-11-17T16:09:30.594Z,7.32
2016-11-17T16:10:11.048Z,7.31
2016-11-17T16:10:51.542Z,7.28
2016-11-17T16:11:32.017Z,7.24
2016-11-17T16:12:12.484Z,7.24
2016-11-17T16:12:52.952Z,7.21
2016-11-17T16:13:33.449Z,7.14
2016-11-17T16:14:13.921Z,7.2
2016-11-17T16:14:54.410Z,7.17
2016-11-17T16:15:34.917Z,7.2
2016-11-17T16:16:15.462Z,7.13
2016-11-17T16:16:55.942Z,7.17
2016-11-17T16:17:36.416Z,7.17
2016-11-17T16:18:16.907Z,7.17
2016-11-17T16:18:57.370Z,7.11
2016-11-17T16:19:37.881Z,7.14
2016-11-17T16:20:18.416Z,7.13
2016-11-17T16:20:58.889Z,7.14
2016-11-17T16:21:39.395Z,7.15
2016-11-17T16:22:19.880Z,7.14
2016-11-17T16:23:00.374Z,7.13
2016-11-17T16:23:40.835Z,7.13
2016-11-17T16:24:21.307Z,7.1
2016-11-17T16:25:01.828Z,6.99
2016-11-17T16:25:42.270Z,7.06
2016-11-17T16:26:22.800Z,7.07
2016-11-17T16:27:03.307Z,7.11
2016-11-17T16:27:43.875Z,6.99
2016-11-17T16:28:24.374Z,7
2016-11-17T16:29:04.845Z,6.97
2016-11-17T16:29:45.316Z,6.97
2016-11-17T16:30:25.770Z,6.95
2016-11-17T16:31:06.272Z,6.88
2016-11-17T16:31:46.778Z,6.88
2016-11-17T16:32:27.288Z,6.87
2016-11-17T16:33:07.772Z,6.84
2016-11-17T16:33:48.311Z,6.84
2016-11-17T16:34:28.768Z,6.88
2016-11-17T16:35:09.273Z,6.87
2016-11-17T16:35:49.732Z,6.78
2016-11-17T16:36:30.192Z,6.84
2016-11-17T16:37:10.691Z,6.67
2016-11-17T16:37:51.152Z,6.75
2016-11-17T16:38:31.660Z,6.77
2016-11-17T16:39:12.160Z,6.7
2016-11-17T16:39:52.616Z,6.63
2016-11-17T16:40:33.168Z,6.57
2016-11-17T16:41:13.628Z,6.52
2016-11-17T16:41:54.113Z,6.62
2016-11-17T16:42:34.580Z,6.54
2016-11-17T16:43:15.038Z,6.56
2016-11-17T16:43:55.548Z,6.54
2016-11-17T16:44:36.036Z,6.52
2016-11-17T16:45:16.508Z,6.59
2016-11-17T16:45:56.976Z,6.57
2016-11-17T16:46:37.463Z,6.59
2016-11-17T16:47:18.802Z,6.51
2016-11-17T16:47:59.283Z,6.57
2016-11-17T16:48:39.758Z,6.54
2016-11-17T16:49:20.247Z,6.54
2016-11-17T16:50:00.754Z,6.57
2016-11-17T16:50:41.231Z,6.56
2016-11-17T16:51:21.695Z,6.54
2016-11-17T16:52:02.191Z,6.51
2016-11-17T16:52:42.672Z,6.54
2016-11-17T16:53:23.201Z,6.54
2016-11-17T16:54:03.719Z,6.54
2016-11-17T16:54:44.197Z,6.52
2016-11-17T16:55:24.672Z,6.56
2016-11-17T16:57:23.161Z,6.51
2016-11-17T16:58:03.363Z,6.56
2016-11-17T16:58:47.800Z,6.52
2016-11-17T16:59:28.313Z,6.56
2016-11-17T17:00:08.811Z,6.56
2016-11-17T17:00:49.257Z,6.52
2016-11-17T17:01:29.756Z,6.56
2016-11-17T17:02:10.418Z,6.56
2016-11-17T17:02:50.900Z,6.52
2016-11-17T17:03:31.373Z,6.62
2016-11-17T17:04:14.637Z,6.56
2016-11-17T17:04:55.139Z,6.56
2016-11-17T17:05:35.654Z,6.46
2016-11-17T17:06:18.609Z,6.56
2016-11-17T17:06:59.107Z,6.54
2016-11-17T17:07:39.588Z,6.52
2016-11-17T17:08:20.082Z,6.56
2016-11-17T17:09:00.558Z,6.54
2016-11-17T17:09:41.051Z,6.52
2016-11-17T17:10:21.508Z,6.57
2016-11-17T17:11:01.997Z,6.56
2016-11-17T17:11:42.479Z,6.64
2016-11-17T17:12:22.954Z,6.64
2016-11-17T17:13:03.492Z,6.66
2016-11-17T17:13:43.965Z,6.7
2016-11-17T17:14:24.468Z,6.64
2016-11-17T17:15:04.906Z,6.67
2016-11-17T17:15:45.395Z,6.77
2016-11-17T17:16:25.867Z,6.72
2016-11-17T17:17:06.339Z,6.77
2016-11-17T17:17:46.818Z,6.79
2016-11-17T17:18:27.300Z,6.7
2016-11-17T17:19:07.807Z,6.79
2016-11-17T17:19:48.337Z,6.82
2016-11-17T17:20:28.836Z,6.84
2016-11-17T17:21:09.312Z,6.74
2016-11-17T17:21:49.782Z,6.74
2016-11-17T17:22:30.266Z,6.82
2016-11-17T17:23:10.718Z,6.81
2016-11-17T17:23:51.183Z,6.85
2016-11-17T17:24:31.663Z,6.79
2016-11-17T17:25:12.146Z,6.78
2016-11-17T17:25:52.625Z,6.79
2016-11-17T17:26:33.061Z,6.82
2016-11-17T17:27:13.567Z,6.85
2016-11-17T17:27:54.061Z,6.88
2016-11-17T17:28:34.552Z,6.92
2016-11-17T17:29:15.023Z,6.92
2016-11-17T17:29:55.513Z,6.82
2016-11-17T17:30:35.980Z,6.87
2016-11-17T17:31:16.509Z,6.85
2016-11-17T17:31:57.013Z,6.84
2016-11-17T17:32:37.467Z,6.79
2016-11-17T17:33:17.963Z,6.77
2016-11-17T17:33:58.521Z,6.77
2016-11-17T17:34:38.977Z,6.79
2016-11-17T17:35:19.466Z,6.81
2016-11-17T17:35:59.912Z,6.7
2016-11-17T17:36:40.411Z,6.69
2016-11-17T17:37:20.934Z,6.74
2016-11-17T17:38:01.426Z,6.69
2016-11-17T17:38:41.928Z,6.7
2016-11-17T17:39:22.394Z,6.63
2016-11-17T17:40:02.930Z,6.6
2016-11-17T17:40:43.471Z,6.57
2016-11-17T17:41:23.933Z,6.57
2016-11-17T17:42:04.387Z,6.57
2016-11-17T17:42:44.898Z,6.52
2016-11-17T17:43:25.361Z,6.51
2016-11-17T17:44:05.862Z,6.54
2016-11-17T17:44:46.314Z,6.52
2016-11-17T17:45:26.771Z,6.45
2016-11-17T17:46:07.222Z,6.44
2016-11-17T17:46:47.753Z,6.44
2016-11-17T17:47:28.263Z,6.41
2016-11-17T17:48:08.756Z,6.44
2016-11-17T17:48:49.261Z,6.44
2016-11-17T17:49:29.733Z,6.38
2016-11-17T17:50:10.242Z,6.33
2016-11-17T17:50:50.681Z,6.46
2016-11-17T17:51:31.166Z,6.38
2016-11-17T17:52:11.622Z,6.35
2016-11-17T17:52:52.108Z,6.42
2016-11-17T17:53:32.599Z,6.33
2016-11-17T17:54:13.058Z,6.41
2016-11-17T17:54:53.554Z,6.36
2016-11-17T17:55:34.055Z,6.48
2016-11-17T17:56:14.560Z,6.45
2016-11-17T17:56:55.053Z,6.46
2016-11-17T17:57:35.543Z,6.46
2016-11-17T17:58:16.042Z,6.48
2016-11-17T17:58:56.526Z,6.51
2016-11-17T17:59:38.627Z,6.54
2016-11-17T18:00:19.135Z,6.52
2016-11-17T18:00:59.664Z,6.51
2016-11-17T18:01:40.154Z,6.54
2016-11-17T18:02:20.695Z,6.54
2016-11-17T18:03:01.161Z,6.51
2016-11-17T18:03:42.296Z,6.52
2016-11-17T18:04:22.786Z,6.51
2016-11-17T18:05:05.604Z,6.56
2016-11-17T18:05:46.075Z,6.51
2016-11-17T18:06:27.387Z,6.52
2016-11-17T18:08:18.292Z,6.59
2016-11-17T18:09:03.611Z,6.6
2016-11-17T18:12:35.667Z,6.6
2016-11-17T18:13:19.506Z,6.56
2016-11-17T18:14:07.946Z,6.6
2016-11-17T18:14:54.386Z,6.7
2016-11-17T18:15:34.854Z,6.66
2016-11-17T18:16:15.340Z,6.69
2016-11-17T18:16:57.571Z,6.6
2016-11-17T18:17:39.889Z,6.62
2016-11-17T18:18:22.175Z,6.6
2016-11-17T18:19:03.172Z,6.62
2016-11-17T18:19:43.622Z,6.64
2016-11-17T18:20:24.818Z,6.6
2016-11-17T18:21:07.006Z,6.64
2016-11-17T18:21:48.295Z,6.66
2016-11-17T18:22:28.808Z,6.74
2016-11-17T18:23:10.178Z,6.74
2016-11-17T18:23:50.633Z,6.69
2016-11-17T18:24:32.671Z,6.72
2016-11-17T18:25:13.149Z,6.78
2016-11-17T18:25:53.654Z,6.72
2016-11-17T18:26:34.137Z,6.79
2016-11-17T18:27:14.611Z,6.79
2016-11-17T18:27:55.101Z,6.81
2016-11-17T18:28:36.367Z,6.78
2016-11-17T18:29:16.847Z,6.77
2016-11-17T18:29:57.365Z,6.79
2016-11-17T18:30:39.769Z,6.85
2016-11-17T18:31:20.249Z,6.84
2016-11-17T18:32:00.724Z,6.85
2016-11-17T18:32:42.186Z,6.87
2016-11-17T18:33:23.351Z,6.82
2016-11-17T18:34:04.615Z,6.89
2016-11-17T18:34:45.055Z,6.87
2016-11-17T18:35:25.522Z,6.95
2016-11-17T18:36:06.105Z,6.87
2016-11-17T18:36:46.574Z,6.88
2016-11-17T18:37:27.602Z,6.88
2016-11-17T18:38:08.100Z,6.99
2016-11-17T18:38:48.598Z,6.87
2016-11-17T18:39:29.246Z,6.92
2016-11-17T18:40:10.021Z,7.03
2016-11-17T18:40:50.681Z,6.97
2016-11-17T18:41:32.079Z,6.96
2016-11-17T18:42:13.016Z,7
2016-11-17T18:42:53.499Z,6.99
2016-11-17T18:43:34.061Z,7.05
2016-11-17T18:44:14.524Z,6.99
2016-11-17T18:44:55.062Z,6.96
2016-11-17T18:45:35.606Z,6.99
2016-11-17T18:46:16.190Z,7.14
2016-11-17T18:46:56.663Z,7
2016-11-17T18:47:37.176Z,7.11
2016-11-17T18:48:17.905Z,7.15
2016-11-17T18:48:58.754Z,7.14
2016-11-17T18:49:39.206Z,7.11
2016-11-17T18:50:19.702Z,7.14
2016-11-17T18:51:00.427Z,7.18
2016-11-17T18:51:40.967Z,7.29
2016-11-17T18:52:21.506Z,7.24
2016-11-17T18:53:02.007Z,7.24
2016-11-17T18:53:42.475Z,7.25
2016-11-17T18:54:23.006Z,7.25
2016-11-17T18:55:03.483Z,7.28
2016-11-17T18:55:43.997Z,7.29
2016-11-17T18:56:24.459Z,7.24
2016-11-17T18:57:04.971Z,7.36
2016-11-17T18:57:45.464Z,7.31
2016-11-17T18:58:25.967Z,7.38
2016-11-17T18:59:06.465Z,7.39
2016-11-17T18:59:46.927Z,7.28
2016-11-17T19:00:27.387Z,7.28
2016-11-17T19:01:07.880Z,7.28
2016-11-17T19:01:48.437Z,7.25
2016-11-17T19:02:28.888Z,7.29
2016-11-17T19:03:09.467Z,7.33
2016-11-17T19:03:49.874Z,7.28
2016-11-17T19:04:30.509Z,7.38
2016-11-17T19:05:12.290Z,7.38
2016-11-17T19:05:53.123Z,7.31
2016-11-17T19:06:33.959Z,7.38
2016-11-17T19:07:14.820Z,7.38
2016-11-17T19:07:54.978Z,7.4
2016-11-17T19:08:35.613Z,7.38
2016-11-17T19:09:16.119Z,7.28
2016-11-17T19:09:56.609Z,7.4
2016-11-17T19:10:37.129Z,7.33
2016-11-17T19:11:20.391Z,7.39
2016-11-17T19:12:00.896Z,7.42
2016-11-17T19:12:41.325Z,7.38